createdAt,value
2022-12-17T00:02:20.079Z,101520.97
2022-12-17T00:05:05.360Z,101528.78
2022-12-17T00:07:50.796Z,101534.91
2022-12-17T00:10:38.137Z,101542.66
2022-12-17T00:13:24.780Z,101533.91
2022-12-17T00:16:11.077Z,101528.69
2022-12-17T00:18:55.512Z,101543.50
2022-12-17T00:21:56.464Z,101541.44
2022-12-17T00:24:42.374Z,101544.94
2022-12-17T00:27:27.747Z,101544.31
2022-12-17T00:30:14.546Z,101552.94
2022-12-17T00:32:59.856Z,101551.22
2022-12-17T00:35:45.474Z,101553.84
2022-12-17T00:38:33.624Z,101559.63
2022-12-17T00:41:18.970Z,101555.41
2022-12-17T00:44:04.019Z,101561.53
2022-12-17T00:46:50.959Z,101558.00
2022-12-17T00:49:37.182Z,101557.22
2022-12-17T00:52:18.994Z,101559.84
2022-12-17T00:55:04.460Z,101566.69
2022-12-17T00:57:49.601Z,101564.09
2022-12-17T01:00:35.034Z,101574.38
2022-12-17T01:03:26.459Z,101576.13
2022-12-17T01:06:26.169Z,101583.09
2022-12-17T01:09:11.628Z,101585.63
2022-12-17T01:11:57.144Z,101583.94
2022-12-17T01:14:42.585Z,101589.97
2022-12-17T01:17:28.102Z,101597.75
2022-12-17T01:20:15.228Z,101603.78
2022-12-17T01:23:00.388Z,101598.66
2022-12-17T01:25:45.732Z,101597.81
2022-12-17T01:28:30.864Z,101606.41
2022-12-17T01:31:16.184Z,101607.28
2022-12-17T01:34:01.355Z,101599.34
2022-12-17T01:36:47.965Z,101610.28
2022-12-17T01:39:33.176Z,101602.16
2022-12-17T01:42:18.410Z,101601.25
2022-12-17T01:45:07.568Z,101601.25
2022-12-17T01:47:58.470Z,101606.50
2022-12-17T01:50:45.162Z,101611.91
2022-12-17T01:53:33.631Z,101619.63
2022-12-17T01:56:19.124Z,101627.53
2022-12-17T01:59:05.611Z,101619.03
2022-12-17T02:01:51.119Z,101626.56
2022-12-17T02:04:36.677Z,101623.97
2022-12-17T02:07:40.349Z,101627.66
2022-12-17T02:10:36.555Z,101623.19
2022-12-17T02:13:28.908Z,101630.09
2022-12-17T02:16:17.905Z,101630.09
2022-12-17T02:19:07.631Z,101622.94
2022-12-17T02:21:54.481Z,101637.94
2022-12-17T02:24:47.535Z,101632.81
2022-12-17T02:27:34.683Z,101620.22
2022-12-17T02:30:25.015Z,101621.59
2022-12-17T02:33:11.184Z,101622.16
2022-12-17T02:36:00.632Z,101620.44
2022-12-17T02:38:48.405Z,101625.25
2022-12-17T02:41:36.648Z,101636.94
2022-12-17T02:44:26.537Z,101637.97
2022-12-17T02:47:13.619Z,101637.56
2022-12-17T02:49:58.797Z,101643.03
2022-12-17T02:52:44.514Z,101644.88
2022-12-17T02:55:35.148Z,101637.50
2022-12-17T02:58:21.091Z,101641.66
2022-12-17T03:01:07.605Z,101649.44
2022-12-17T03:03:54.497Z,101659.59
2022-12-17T03:06:40.565Z,101652.38
2022-12-17T03:09:25.845Z,101659.81
2022-12-17T03:12:11.089Z,101661.19
2022-12-17T03:14:56.530Z,101657.00
2022-12-17T03:17:43.029Z,101652.38
2022-12-17T03:20:29.169Z,101665.41
2022-12-17T03:23:20.454Z,101661.88
2022-12-17T03:26:06.026Z,101669.25
2022-12-17T03:28:51.205Z,101665.69
2022-12-17T03:31:36.585Z,101673.06
2022-12-17T03:34:23.007Z,101682.09
2022-12-17T03:37:08.438Z,101675.66
2022-12-17T03:39:53.704Z,101675.41
2022-12-17T03:42:39.148Z,101678.25
2022-12-17T03:45:25.336Z,101678.25
2022-12-17T03:48:10.690Z,101690.59
2022-12-17T03:50:59.339Z,101690.72
2022-12-17T03:53:44.449Z,101689.25
2022-12-17T03:56:29.690Z,101696.72
2022-12-17T03:59:15.372Z,101702.41
2022-12-17T04:02:00.950Z,101701.19
2022-12-17T04:04:46.256Z,101703.56
2022-12-17T04:07:32.864Z,101711.13
2022-12-17T04:10:18.149Z,101715.13
2022-12-17T04:13:03.203Z,101719.78
2022-12-17T04:15:48.549Z,101717.63
2022-12-17T04:18:33.955Z,101719.41
2022-12-17T04:21:19.305Z,101725.00
2022-12-17T04:24:06.251Z,101734.88
2022-12-17T04:26:51.492Z,101737.59
2022-12-17T04:29:37.889Z,101739.66
2022-12-17T04:32:23.399Z,101745.34
2022-12-17T04:35:11.033Z,101736.59
2022-12-17T04:37:56.730Z,101733.22
2022-12-17T04:40:43.450Z,101745.31
2022-12-17T04:43:30.657Z,101743.94
2022-12-17T04:46:16.135Z,101734.88
2022-12-17T04:49:01.500Z,101742.66
2022-12-17T04:51:46.794Z,101747.84
2022-12-17T04:54:32.173Z,101747.66
2022-12-17T04:57:18.810Z,101752.94
2022-12-17T05:00:03.972Z,101749.47
2022-12-17T05:02:49.290Z,101756.97
2022-12-17T05:05:36.732Z,101756.09
2022-12-17T05:08:21.948Z,101759.09
2022-12-17T05:11:07.492Z,101755.19
2022-12-17T05:13:54.142Z,101769.53
2022-12-17T05:16:39.369Z,101761.88
2022-12-17T05:19:24.613Z,101767.91
2022-12-17T05:22:13.054Z,101759.66
2022-12-17T05:24:58.535Z,101762.31
2022-12-17T05:27:52.174Z,101769.09
2022-12-17T05:30:39.214Z,101773.78
2022-12-17T05:33:24.607Z,101778.88
2022-12-17T05:36:09.960Z,101772.50
2022-12-17T05:38:55.421Z,101780.19
2022-12-17T05:41:40.900Z,101779.59
2022-12-17T05:44:25.417Z,101784.50
2022-12-17T05:47:12.195Z,101794.22
2022-12-17T05:49:57.621Z,101795.09
2022-12-17T05:52:42.909Z,101795.50
2022-12-17T05:55:28.274Z,101810.00
2022-12-17T05:58:20.816Z,101825.66
2022-12-17T06:01:05.793Z,101815.94
2022-12-17T06:03:52.976Z,101835.41
2022-12-17T06:06:34.788Z,101815.44
2022-12-17T06:09:22.498Z,101823.53
2022-12-17T06:12:08.004Z,101827.75
2022-12-17T06:14:53.480Z,101834.91
2022-12-17T06:17:38.942Z,101833.59
2022-12-17T06:20:26.907Z,101841.13
2022-12-17T06:23:17.967Z,101841.03
2022-12-17T06:26:03.302Z,101843.78
2022-12-17T06:28:48.862Z,101846.97
2022-12-17T06:31:34.182Z,101848.63
2022-12-17T06:34:19.437Z,101847.84
2022-12-17T06:37:06.268Z,101851.19
2022-12-17T06:39:48.155Z,101854.81
2022-12-17T06:42:33.341Z,101852.00
2022-12-17T06:45:18.729Z,101868.72
2022-12-17T06:48:03.861Z,101862.41
2022-12-17T06:50:49.138Z,101867.81
2022-12-17T06:53:36.224Z,101866.16
2022-12-17T06:56:21.641Z,101879.78
2022-12-17T06:59:07.302Z,101888.50
2022-12-17T07:01:55.828Z,101884.81
2022-12-17T07:04:41.022Z,101897.34
2022-12-17T07:07:26.472Z,101892.63
2022-12-17T07:10:14.461Z,101903.50
2022-12-17T07:13:00.000Z,101907.41
2022-12-17T07:15:45.133Z,101906.47
2022-12-17T07:18:30.390Z,101920.00
2022-12-17T07:21:15.630Z,101927.34
2022-12-17T07:24:01.152Z,101930.09
2022-12-17T07:26:47.816Z,101925.41
2022-12-17T07:29:33.244Z,101936.06
2022-12-17T07:32:18.735Z,101941.09
2022-12-17T07:35:04.191Z,101940.25
2022-12-17T07:37:49.655Z,101944.69
2022-12-17T07:40:40.411Z,101953.47
2022-12-17T07:43:29.955Z,101955.22
2022-12-17T07:46:15.202Z,101947.09
2022-12-17T07:49:00.465Z,101945.66
2022-12-17T07:51:45.696Z,101955.56
2022-12-17T07:54:31.098Z,101959.41
2022-12-17T07:57:24.959Z,101962.25
2022-12-17T08:00:11.631Z,101978.34
2022-12-17T08:02:56.995Z,101981.31
2022-12-17T08:05:42.347Z,101988.50
2022-12-17T08:08:27.957Z,101992.63
2022-12-17T08:11:13.129Z,101990.41
2022-12-17T08:13:58.325Z,101987.53
2022-12-17T08:16:45.010Z,101999.28
2022-12-17T08:19:30.195Z,101997.34
2022-12-17T08:22:15.455Z,101995.88
2022-12-17T08:25:00.716Z,101995.66
2022-12-17T08:27:46.129Z,101988.00
2022-12-17T08:30:32.058Z,101989.03
2022-12-17T08:33:22.062Z,101989.25
2022-12-17T08:36:10.971Z,101996.19
2022-12-17T08:38:56.267Z,102009.59
2022-12-17T08:41:41.594Z,102015.94
2022-12-17T08:44:27.236Z,102008.53
2022-12-17T08:47:13.168Z,102010.97
2022-12-17T08:50:00.082Z,101997.09
2022-12-17T08:52:45.448Z,102004.78
2022-12-17T08:55:30.819Z,102014.50
2022-12-17T08:58:17.826Z,102027.47
2022-12-17T09:01:03.701Z,102024.09
2022-12-17T09:03:49.138Z,102028.47
2022-12-17T09:06:39.228Z,102031.09
2022-12-17T09:09:25.294Z,102023.00
2022-12-17T09:12:12.940Z,102031.09
2022-12-17T09:14:58.664Z,102030.38
2022-12-17T09:17:44.040Z,102046.38
2022-12-17T09:20:29.780Z,102051.00
2022-12-17T09:23:16.827Z,102050.50
2022-12-17T09:26:01.953Z,102039.94
2022-12-17T09:28:47.231Z,102036.00
2022-12-17T09:31:37.214Z,102033.41
2022-12-17T09:34:22.937Z,102035.63
2022-12-17T09:37:08.173Z,102054.69
2022-12-17T09:39:56.530Z,102053.13
2022-12-17T09:42:49.682Z,102054.06
2022-12-17T09:45:39.567Z,102057.47
2022-12-17T09:48:32.434Z,102047.81
2022-12-17T09:51:18.706Z,102040.66
2022-12-17T09:54:06.558Z,102055.03
2022-12-17T09:56:54.771Z,102049.22
2022-12-17T09:59:44.843Z,102061.31
2022-12-17T10:02:32.610Z,102050.00
2022-12-17T10:05:20.047Z,102057.84
2022-12-17T10:08:06.161Z,102056.22
2022-12-17T10:10:51.952Z,102063.41
2022-12-17T10:13:40.288Z,102071.28
2022-12-17T10:16:41.956Z,102068.91
2022-12-17T10:19:31.967Z,102068.72
2022-12-17T10:22:22.986Z,102084.72
2022-12-17T10:25:08.207Z,102088.22
2022-12-17T10:27:53.617Z,102089.50
2022-12-17T10:30:40.197Z,102085.84
2022-12-17T10:33:26.671Z,102089.19
2022-12-17T10:36:11.858Z,102084.41
2022-12-17T10:38:56.885Z,102095.03
2022-12-17T10:41:44.368Z,102087.03
2022-12-17T10:44:44.726Z,102089.94
2022-12-17T10:47:33.086Z,102079.97
2022-12-17T10:50:20.556Z,102088.84
2022-12-17T10:53:07.060Z,102086.59
2022-12-17T10:55:53.956Z,102092.84
2022-12-17T10:58:47.069Z,102105.13
2022-12-17T11:01:38.009Z,102107.34
2022-12-17T11:04:42.128Z,102112.06
2022-12-17T11:07:29.125Z,102111.25
2022-12-17T11:10:16.163Z,102109.19
2022-12-17T11:13:04.380Z,102117.25
2022-12-17T11:15:51.737Z,102102.88
2022-12-17T11:18:40.799Z,102103.72
2022-12-17T11:21:30.946Z,102111.66
2022-12-17T11:24:22.253Z,102109.72
2022-12-17T11:27:10.779Z,102106.59
2022-12-17T11:29:56.168Z,102119.41
2022-12-17T11:33:03.224Z,102122.34
2022-12-17T11:35:52.109Z,102127.59
2022-12-17T11:39:00.722Z,102119.41
2022-12-17T11:41:53.831Z,102128.53
2022-12-17T11:44:50.777Z,102134.16
2022-12-17T11:47:44.143Z,102137.34
2022-12-17T11:50:37.571Z,102135.63
2022-12-17T11:53:29.127Z,102138.38
2022-12-17T11:56:22.205Z,102144.25
2022-12-17T11:59:09.577Z,102148.06
2022-12-17T12:02:00.110Z,102153.91
2022-12-17T12:04:57.478Z,102138.09
2022-12-17T12:07:47.264Z,102139.38
2022-12-17T12:10:38.699Z,102141.00
2022-12-17T12:13:34.238Z,102138.34
2022-12-17T12:16:25.160Z,102148.00
2022-12-17T12:19:18.829Z,102148.13
2022-12-17T12:22:09.833Z,102141.13
2022-12-17T12:25:23.455Z,102146.41
2022-12-17T12:28:14.961Z,102144.38
2022-12-17T12:31:07.870Z,102159.88
2022-12-17T12:34:06.822Z,102161.22
2022-12-17T12:36:52.903Z,102164.28
2022-12-17T12:39:42.816Z,102167.88
2022-12-17T12:42:34.615Z,102173.00
2022-12-17T12:45:20.218Z,102180.53
2022-12-17T12:48:13.750Z,102183.63
2022-12-17T12:51:04.661Z,102186.28
2022-12-17T12:53:50.106Z,102183.66
2022-12-17T12:56:54.068Z,102191.41
2022-12-17T12:59:44.274Z,102191.81
2022-12-17T13:02:42.757Z,102195.19
2022-12-17T13:05:35.688Z,102196.81
2022-12-17T13:08:20.131Z,102193.41
2022-12-17T13:10:48.389Z,102197.06
2022-12-17T13:13:26.082Z,102198.97
2022-12-17T13:15:56.203Z,102193.00
2022-12-17T13:18:30.157Z,102190.88
2022-12-17T13:21:02.303Z,102191.72
2022-12-17T13:23:35.313Z,102189.28
2022-12-17T13:26:22.151Z,102190.38
2022-12-17T13:29:00.443Z,102190.28
2022-12-17T13:31:29.965Z,102195.97
2022-12-17T13:34:04.497Z,102196.81
2022-12-17T13:36:40.413Z,102200.03
2022-12-17T13:39:21.583Z,102211.25
2022-12-17T13:41:54.701Z,102222.50
2022-12-17T13:44:25.266Z,102216.44
2022-12-17T13:46:54.553Z,102212.66
2022-12-17T13:49:24.549Z,102220.34
2022-12-17T13:52:09.665Z,102221.06
2022-12-17T13:54:39.804Z,102224.50
2022-12-17T13:57:09.404Z,102227.91
2022-12-17T13:59:37.312Z,102231.09
2022-12-17T14:02:06.564Z,102243.81
2022-12-17T14:04:34.554Z,102241.09
2022-12-17T14:07:06.871Z,102242.88
2022-12-17T14:09:37.964Z,102245.00
2022-12-17T14:12:25.652Z,102244.25
2022-12-17T14:14:56.937Z,102252.00
2022-12-17T14:17:26.383Z,102254.09
2022-12-17T14:19:59.598Z,102265.31
2022-12-17T14:22:34.557Z,102267.28
2022-12-17T14:25:02.988Z,102266.84
2022-12-17T14:27:34.127Z,102265.66
2022-12-17T14:30:02.852Z,102271.38
2022-12-17T14:32:34.199Z,102282.47
2022-12-17T14:35:02.161Z,102269.22
2022-12-17T14:37:31.378Z,102268.59
2022-12-17T14:40:03.512Z,102258.50
2022-12-17T14:42:32.572Z,102268.28
2022-12-17T14:45:02.098Z,102273.34
2022-12-17T14:47:31.194Z,102267.56
2022-12-17T14:50:05.719Z,102267.09
2022-12-17T14:52:44.224Z,102275.66
2022-12-17T14:55:34.706Z,102290.94
2022-12-17T14:58:18.163Z,102295.00
2022-12-17T15:00:48.159Z,102297.38
2022-12-17T15:03:20.141Z,102293.69
2022-12-17T15:05:51.453Z,102293.19
2022-12-17T15:08:22.690Z,102293.88
2022-12-17T15:10:50.756Z,102288.59
2022-12-17T15:13:18.540Z,102290.88
2022-12-17T15:15:46.797Z,102299.53
2022-12-17T15:18:14.657Z,102302.19
2022-12-17T15:20:43.530Z,102297.47
2022-12-17T15:23:17.594Z,102300.25
2022-12-17T15:25:48.219Z,102306.00
2022-12-17T15:28:16.553Z,102311.91
2022-12-17T15:30:44.686Z,102323.63
2022-12-17T15:33:13.125Z,102327.19
2022-12-17T15:35:41.249Z,102336.25
2022-12-17T15:38:09.527Z,102325.81
2022-12-17T15:40:37.948Z,102334.94
2022-12-17T15:43:12.463Z,102343.25
2022-12-17T15:45:41.775Z,102338.69
2022-12-17T15:48:10.114Z,102339.34
2022-12-17T15:50:39.095Z,102350.06
2022-12-17T15:53:07.706Z,102342.03
2022-12-17T15:55:35.991Z,102349.75
2022-12-17T15:58:03.982Z,102360.34
2022-12-17T16:00:33.816Z,102348.06
2022-12-17T16:03:02.061Z,102349.88
2022-12-17T16:05:30.056Z,102345.78
2022-12-17T16:07:59.114Z,102346.75
2022-12-17T16:10:27.095Z,102352.31
2022-12-17T16:12:54.981Z,102353.16
2022-12-17T16:15:22.847Z,102349.63
2022-12-17T16:17:52.082Z,102353.53
2022-12-17T16:20:21.055Z,102352.22
2022-12-17T16:22:48.906Z,102356.81
2022-12-17T16:25:19.368Z,102351.19
2022-12-17T16:27:47.399Z,102352.94
2022-12-17T16:30:15.487Z,102356.31
2022-12-17T16:32:43.523Z,102355.75
2022-12-17T16:35:13.976Z,102358.38
2022-12-17T16:37:42.183Z,102363.69
2022-12-17T16:40:11.708Z,102366.47
2022-12-17T16:42:39.632Z,102366.06
2022-12-17T16:45:08.589Z,102364.00
2022-12-17T16:47:36.748Z,102362.75
2022-12-17T16:50:05.141Z,102362.91
2022-12-17T16:52:35.088Z,102378.44
2022-12-17T16:55:02.962Z,102384.06
2022-12-17T16:57:30.878Z,102384.56
2022-12-17T16:59:58.737Z,102378.53
2022-12-17T17:02:26.629Z,102379.19
2022-12-17T17:04:54.731Z,102374.00
2022-12-17T17:07:22.815Z,102380.81
2022-12-17T17:09:52.005Z,102388.47
2022-12-17T17:12:19.896Z,102389.75
2022-12-17T17:14:47.784Z,102389.78
2022-12-17T17:17:15.701Z,102393.16
2022-12-17T17:19:43.601Z,102388.81
2022-12-17T17:22:11.457Z,102385.38
2022-12-17T17:24:39.320Z,102378.47
2022-12-17T17:27:08.566Z,102386.59
2022-12-17T17:29:36.515Z,102402.50
2022-12-17T17:32:13.405Z,102394.28
2022-12-17T17:34:41.772Z,102397.63
2022-12-17T17:37:09.758Z,102415.13
2022-12-17T17:39:37.649Z,102418.91
2022-12-17T17:42:05.880Z,102412.19
2022-12-17T17:44:35.187Z,102427.28
2022-12-17T17:47:03.269Z,102418.13
2022-12-17T17:49:31.378Z,102416.09
2022-12-17T17:52:14.607Z,102426.94
2022-12-17T17:54:42.555Z,102420.03
2022-12-17T17:57:10.922Z,102417.31
2022-12-17T17:59:40.459Z,102410.44
2022-12-17T18:02:10.507Z,102417.59
2022-12-17T18:04:38.448Z,102412.53
2022-12-17T18:07:24.771Z,102422.31
2022-12-17T18:09:53.410Z,102425.63
2022-12-17T18:12:40.469Z,102431.22
2022-12-17T18:15:15.926Z,102440.38
2022-12-17T18:17:45.589Z,102440.94
2022-12-17T18:20:13.651Z,102433.38
2022-12-17T18:22:41.590Z,102435.78
2022-12-17T18:25:10.487Z,102446.13
2022-12-17T18:27:38.650Z,102441.66
2022-12-17T18:30:07.572Z,102432.22
2022-12-17T18:32:36.918Z,102441.53
2022-12-17T18:35:05.178Z,102443.63
2022-12-17T18:37:33.124Z,102449.28
2022-12-17T18:40:01.046Z,102452.94
2022-12-17T18:42:47.420Z,102448.47
2022-12-17T18:45:16.393Z,102447.97
2022-12-17T18:47:47.626Z,102460.31
2022-12-17T18:50:18.034Z,102461.03
2022-12-17T18:52:49.786Z,102465.50
2022-12-17T18:55:18.407Z,102464.81
2022-12-17T18:58:16.244Z,102464.28
2022-12-17T19:00:59.637Z,102473.41
2022-12-17T19:03:35.363Z,102467.59
2022-12-17T19:06:13.623Z,102479.06
2022-12-17T19:09:10.298Z,102487.50
2022-12-17T19:12:00.584Z,102486.47
2022-12-17T19:14:38.050Z,102493.53
2022-12-17T19:17:07.342Z,102488.13
2022-12-17T19:19:37.659Z,102495.75
2022-12-17T19:22:06.216Z,102497.38
2022-12-17T19:24:40.107Z,102489.09
2022-12-17T19:27:12.057Z,102492.91
2022-12-17T19:29:49.902Z,102496.75
2022-12-17T19:32:20.003Z,102502.09
2022-12-17T19:34:49.963Z,102503.06
2022-12-17T19:37:18.158Z,102504.78
2022-12-17T19:39:47.472Z,102501.97
2022-12-17T19:42:25.524Z,102503.28
2022-12-17T19:44:54.246Z,102515.09
2022-12-17T19:47:23.326Z,102513.34
2022-12-17T19:49:53.203Z,102514.09
2022-12-17T19:52:24.510Z,102519.19
2022-12-17T19:54:53.288Z,102522.94
2022-12-17T19:57:21.260Z,102529.47
2022-12-17T19:59:50.133Z,102525.19
2022-12-17T20:02:24.108Z,102528.53
2022-12-17T20:04:56.607Z,102530.06
2022-12-17T20:07:25.184Z,102526.91
2022-12-17T20:09:55.083Z,102533.81
2022-12-17T20:12:32.769Z,102537.81
2022-12-17T20:15:00.938Z,102537.47
2022-12-17T20:17:29.196Z,102541.78
2022-12-17T20:19:59.172Z,102547.38
2022-12-17T20:22:27.515Z,102544.38
2022-12-17T20:24:56.230Z,102546.28
2022-12-17T20:27:24.440Z,102540.59
2022-12-17T20:29:52.355Z,102548.25
2022-12-17T20:32:24.434Z,102540.19
2022-12-17T20:34:53.519Z,102543.69
2022-12-17T20:37:23.545Z,102552.78
2022-12-17T20:39:52.897Z,102554.00
2022-12-17T20:42:20.993Z,102552.06
2022-12-17T20:44:53.658Z,102550.22
2022-12-17T20:47:23.466Z,102556.84
2022-12-17T20:49:54.547Z,102549.06
2022-12-17T20:52:29.261Z,102557.66
2022-12-17T20:54:57.332Z,102555.56
2022-12-17T20:57:25.473Z,102559.97
2022-12-17T20:59:55.594Z,102557.88
2022-12-17T21:02:27.089Z,102570.97
2022-12-17T21:04:57.418Z,102561.69
2022-12-17T21:07:39.181Z,102576.25
2022-12-17T21:10:11.631Z,102571.97
2022-12-17T21:13:08.913Z,102568.66
2022-12-17T21:15:37.643Z,102570.38
2022-12-17T21:18:05.971Z,102557.28
2022-12-17T21:20:34.882Z,102566.69
2022-12-17T21:23:05.404Z,102567.19
2022-12-17T21:25:33.941Z,102570.34
2022-12-17T21:28:02.892Z,102574.38
2022-12-17T21:30:31.089Z,102574.75
2022-12-17T21:32:59.625Z,102577.84
2022-12-17T21:35:29.508Z,102589.34
2022-12-17T21:37:58.032Z,102582.25
2022-12-17T21:40:27.533Z,102583.66
2022-12-17T21:43:04.763Z,102591.44
2022-12-17T21:45:37.561Z,102600.63
2022-12-17T21:48:11.150Z,102597.53
2022-12-17T21:50:46.362Z,102593.63
2022-12-17T21:53:15.633Z,102606.53
2022-12-17T21:55:45.694Z,102606.44
2022-12-17T21:58:16.857Z,102598.75
2022-12-17T22:00:46.407Z,102608.78
2022-12-17T22:03:14.939Z,102605.91
2022-12-17T22:05:43.305Z,102599.84
2022-12-17T22:08:12.591Z,102607.34
2022-12-17T22:10:44.729Z,102613.16
2022-12-17T22:13:39.739Z,102613.47
2022-12-17T22:16:08.968Z,102617.22
2022-12-17T22:18:38.121Z,102613.78
2022-12-17T22:21:07.097Z,102626.13
2022-12-17T22:23:35.112Z,102636.41
2022-12-17T22:26:03.523Z,102626.25
2022-12-17T22:28:33.759Z,102619.53
2022-12-17T22:31:24.741Z,102623.44
2022-12-17T22:35:01.822Z,102625.53
2022-12-17T22:38:59.342Z,102631.09
2022-12-17T22:43:55.999Z,102629.00
2022-12-17T22:44:49.497Z,102631.72
2022-12-17T22:45:29.297Z,102642.19
2022-12-17T22:48:00.664Z,102635.81
2022-12-17T22:50:36.772Z,102647.25
2022-12-17T22:53:09.723Z,102652.31
2022-12-17T22:55:39.592Z,102657.53
2022-12-17T22:58:08.943Z,102646.91
2022-12-17T23:00:38.432Z,102660.16
2022-12-17T23:03:06.822Z,102664.81
2022-12-17T23:05:36.745Z,102667.97
2022-12-17T23:08:05.253Z,102671.94
2022-12-17T23:10:34.212Z,102670.53
2022-12-17T23:13:08.585Z,102680.72
2022-12-17T23:15:41.318Z,102668.44
2022-12-17T23:18:09.388Z,102684.81
2022-12-17T23:20:37.534Z,102683.53
2022-12-17T23:23:06.209Z,102683.69
2022-12-17T23:25:52.305Z,102674.59
2022-12-17T23:28:20.541Z,102678.38
2022-12-17T23:30:51.411Z,102670.72
2022-12-17T23:33:20.276Z,102666.47
2022-12-17T23:35:50.232Z,102667.28
2022-12-17T23:38:21.627Z,102678.00
2022-12-17T23:40:49.599Z,102675.25
2022-12-17T23:43:17.629Z,102673.50
2022-12-17T23:45:46.105Z,102680.91
2022-12-17T23:48:15.491Z,102672.41
2022-12-17T23:50:43.619Z,102677.84
2022-12-17T23:53:15.162Z,102681.59
2022-12-17T23:55:43.065Z,102682.50
2022-12-17T23:58:11.016Z,102696.84
